sensor_id;sensor_type;location;lat;lon;timestamp;P1;durP1;ratioP1;P2;durP2;ratioP2
36001;SDS011;22070;50.922;5.430;2024-03-17T00:00:30;15.60;;;7.67;;
36001;SDS011;22070;50.922;5.430;2024-03-17T00:05:22;15.90;;;7.67;;
36001;SDS011;22070;50.922;5.430;2024-03-17T00:07:48;14.23;;;7.00;;
36001;SDS011;22070;50.922;5.430;2024-03-17T00:10:14;18.60;;;7.63;;
36001;SDS011;22070;50.922;5.430;2024-03-17T00:12:40;19.70;;;7.60;;
36001;SDS011;22070;50.922;5.430;2024-03-17T00:15:06;11.03;;;7.00;;
36001;SDS011;22070;50.922;5.430;2024-03-17T00:17:33;11.75;;;6.20;;
36001;SDS011;22070;50.922;5.430;2024-03-17T00:20:00;11.68;;;6.85;;
36001;SDS011;22070;50.922;5.430;2024-03-17T00:22:34;16.90;;;6.88;;
36001;SDS011;22070;50.922;5.430;2024-03-17T00:25:04;10.98;;;7.25;;
36001;SDS011;22070;50.922;5.430;2024-03-17T00:27:31;16.83;;;7.68;;
36001;SDS011;22070;50.922;5.430;2024-03-17T00:29:56;16.33;;;6.97;;
36001;SDS011;22070;50.922;5.430;2024-03-17T00:32:22;12.17;;;7.07;;
36001;SDS011;22070;50.922;5.430;2024-03-17T00:34:48;13.85;;;6.63;;
36001;SDS011;22070;50.922;5.430;2024-03-17T00:37:14;14.03;;;7.07;;
36001;SDS011;22070;50.922;5.430;2024-03-17T00:39:40;11.37;;;6.73;;
36001;SDS011;22070;50.922;5.430;2024-03-17T00:42:05;13.68;;;6.53;;
36001;SDS011;22070;50.922;5.430;2024-03-17T00:44:31;14.80;;;7.10;;
36001;SDS011;22070;50.922;5.430;2024-03-17T00:46:57;13.18;;;6.95;;
36001;SDS011;22070;50.922;5.430;2024-03-17T00:49:22;14.00;;;7.82;;
36001;SDS011;22070;50.922;5.430;2024-03-17T00:51:48;15.47;;;6.80;;
36001;SDS011;22070;50.922;5.430;2024-03-17T00:54:15;12.52;;;6.80;;
36001;SDS011;22070;50.922;5.430;2024-03-17T00:56:43;12.70;;;7.38;;
36001;SDS011;22070;50.922;5.430;2024-03-17T00:59:08;13.85;;;6.35;;
36001;SDS011;22070;50.922;5.430;2024-03-17T01:01:34;14.23;;;6.53;;
36001;SDS011;22070;50.922;5.430;2024-03-17T01:03:59;10.20;;;6.20;;
36001;SDS011;22070;50.922;5.430;2024-03-17T01:06:25;13.15;;;7.07;;
36001;SDS011;22070;50.922;5.430;2024-03-17T01:08:51;12.13;;;6.63;;
36001;SDS011;22070;50.922;5.430;2024-03-17T01:11:17;10.65;;;6.53;;
36001;SDS011;22070;50.922;5.430;2024-03-17T01:13:44;20.05;;;7.30;;
36001;SDS011;22070;50.922;5.430;2024-03-17T01:16:13;12.15;;;6.70;;
36001;SDS011;22070;50.922;5.430;2024-03-17T01:18:38;11.77;;;6.45;;
36001;SDS011;22070;50.922;5.430;2024-03-17T01:21:05;10.25;;;4.85;;
36001;SDS011;22070;50.922;5.430;2024-03-17T01:25:57;15.02;;;6.45;;
36001;SDS011;22070;50.922;5.430;2024-03-17T01:28:23;11.63;;;6.47;;
36001;SDS011;22070;50.922;5.430;2024-03-17T01:30:49;13.63;;;7.13;;
36001;SDS011;22070;50.922;5.430;2024-03-17T01:33:14;13.15;;;6.82;;
36001;SDS011;22070;50.922;5.430;2024-03-17T01:35:42;14.80;;;6.47;;
36001;SDS011;22070;50.922;5.430;2024-03-17T01:38:08;15.30;;;6.95;;
36001;SDS011;22070;50.922;5.430;2024-03-17T01:40:35;12.85;;;6.25;;
36001;SDS011;22070;50.922;5.430;2024-03-17T01:43:01;12.65;;;6.70;;
36001;SDS011;22070;50.922;5.430;2024-03-17T01:45:33;12.33;;;6.40;;
36001;SDS011;22070;50.922;5.430;2024-03-17T01:47:59;13.27;;;6.50;;
36001;SDS011;22070;50.922;5.430;2024-03-17T01:50:37;12.27;;;6.85;;
36001;SDS011;22070;50.922;5.430;2024-03-17T01:53:03;12.30;;;6.80;;
36001;SDS011;22070;50.922;5.430;2024-03-17T01:55:36;11.15;;;6.28;;
36001;SDS011;22070;50.922;5.430;2024-03-17T01:58:03;12.45;;;6.75;;
36001;SDS011;22070;50.922;5.430;2024-03-17T02:00:32;13.70;;;6.85;;
36001;SDS011;22070;50.922;5.430;2024-03-17T02:03:01;14.13;;;6.57;;
36001;SDS011;22070;50.922;5.430;2024-03-17T02:05:30;13.07;;;6.88;;
36001;SDS011;22070;50.922;5.430;2024-03-17T02:07:56;12.77;;;7.18;;
36001;SDS011;22070;50.922;5.430;2024-03-17T02:10:22;14.97;;;6.90;;
36001;SDS011;22070;50.922;5.430;2024-03-17T02:12:48;12.90;;;7.00;;
36001;SDS011;22070;50.922;5.430;2024-03-17T02:15:14;12.90;;;6.57;;
36001;SDS011;22070;50.922;5.430;2024-03-17T02:17:39;12.50;;;6.72;;
36001;SDS011;22070;50.922;5.430;2024-03-17T02:20:05;12.27;;;6.40;;
36001;SDS011;22070;50.922;5.430;2024-03-17T02:22:33;10.80;;;6.22;;
36001;SDS011;22070;50.922;5.430;2024-03-17T02:25:05;14.02;;;7.50;;
36001;SDS011;22070;50.922;5.430;2024-03-17T02:27:34;12.45;;;5.85;;
36001;SDS011;22070;50.922;5.430;2024-03-17T02:30:01;13.45;;;6.65;;
36001;SDS011;22070;50.922;5.430;2024-03-17T02:32:33;12.23;;;6.80;;
36001;SDS011;22070;50.922;5.430;2024-03-17T02:34:59;12.97;;;7.10;;
36001;SDS011;22070;50.922;5.430;2024-03-17T02:37:25;12.13;;;6.30;;
36001;SDS011;22070;50.922;5.430;2024-03-17T02:39:52;12.07;;;6.03;;
36001;SDS011;22070;50.922;5.430;2024-03-17T02:42:18;11.70;;;6.43;;
36001;SDS011;22070;50.922;5.430;2024-03-17T02:44:44;12.90;;;6.32;;
36001;SDS011;22070;50.922;5.430;2024-03-17T02:47:10;10.88;;;6.07;;
36001;SDS011;22070;50.922;5.430;2024-03-17T02:49:39;13.23;;;5.90;;
36001;SDS011;22070;50.922;5.430;2024-03-17T02:52:08;11.18;;;5.60;;
36001;SDS011;22070;50.922;5.430;2024-03-17T02:57:04;8.40;;;5.18;;
36001;SDS011;22070;50.922;5.430;2024-03-17T02:59:31;11.07;;;6.00;;
36001;SDS011;22070;50.922;5.430;2024-03-17T03:01:58;7.45;;;5.07;;
36001;SDS011;22070;50.922;5.430;2024-03-17T03:04:24;10.25;;;5.50;;
36001;SDS011;22070;50.922;5.430;2024-03-17T03:06:50;10.93;;;5.30;;
36001;SDS011;22070;50.922;5.430;2024-03-17T03:09:16;8.75;;;4.38;;
36001;SDS011;22070;50.922;5.430;2024-03-17T03:11:50;8.57;;;5.30;;
36001;SDS011;22070;50.922;5.430;2024-03-17T03:14:16;7.72;;;4.85;;
36001;SDS011;22070;50.922;5.430;2024-03-17T03:16:42;8.67;;;4.93;;
36001;SDS011;22070;50.922;5.430;2024-03-17T03:19:08;7.63;;;4.63;;
36001;SDS011;22070;50.922;5.430;2024-03-17T03:21:34;10.90;;;4.73;;
36001;SDS011;22070;50.922;5.430;2024-03-17T03:24:00;9.35;;;4.78;;
36001;SDS011;22070;50.922;5.430;2024-03-17T03:26:26;6.70;;;4.68;;
36001;SDS011;22070;50.922;5.430;2024-03-17T03:31:20;6.00;;;3.80;;
36001;SDS011;22070;50.922;5.430;2024-03-17T03:33:46;8.15;;;4.10;;
36001;SDS011;22070;50.922;5.430;2024-03-17T03:36:13;6.33;;;4.27;;
36001;SDS011;22070;50.922;5.430;2024-03-17T03:38:40;6.40;;;3.55;;
36001;SDS011;22070;50.922;5.430;2024-03-17T03:41:09;6.17;;;4.03;;
36001;SDS011;22070;50.922;5.430;2024-03-17T03:43:37;8.30;;;4.45;;
36001;SDS011;22070;50.922;5.430;2024-03-17T03:46:03;7.70;;;3.83;;
36001;SDS011;22070;50.922;5.430;2024-03-17T03:48:29;8.05;;;3.80;;
36001;SDS011;22070;50.922;5.430;2024-03-17T03:50:55;5.22;;;3.50;;
36001;SDS011;22070;50.922;5.430;2024-03-17T03:53:21;7.68;;;3.90;;
36001;SDS011;22070;50.922;5.430;2024-03-17T03:55:47;6.75;;;4.05;;
36001;SDS011;22070;50.922;5.430;2024-03-17T03:58:13;5.53;;;3.63;;
36001;SDS011;22070;50.922;5.430;2024-03-17T04:00:39;9.45;;;3.97;;
36001;SDS011;22070;50.922;5.430;2024-03-17T04:03:05;8.57;;;3.55;;
36001;SDS011;22070;50.922;5.430;2024-03-17T04:05:31;4.70;;;2.87;;
36001;SDS011;22070;50.922;5.430;2024-03-17T04:07:57;6.80;;;3.60;;
36001;SDS011;22070;50.922;5.430;2024-03-17T04:10:23;5.73;;;3.50;;
36001;SDS011;22070;50.922;5.430;2024-03-17T04:12:50;6.90;;;3.63;;
36001;SDS011;22070;50.922;5.430;2024-03-17T04:15:16;7.40;;;3.78;;
36001;SDS011;22070;50.922;5.430;2024-03-17T04:17:42;4.70;;;3.20;;
36001;SDS011;22070;50.922;5.430;2024-03-17T04:20:08;6.10;;;3.60;;
36001;SDS011;22070;50.922;5.430;2024-03-17T04:22:35;8.38;;;3.88;;
36001;SDS011;22070;50.922;5.430;2024-03-17T04:25:01;5.53;;;3.40;;
36001;SDS011;22070;50.922;5.430;2024-03-17T04:27:28;5.95;;;4.15;;
36001;SDS011;22070;50.922;5.430;2024-03-17T04:29:55;6.75;;;3.72;;
36001;SDS011;22070;50.922;5.430;2024-03-17T04:32:22;5.78;;;3.80;;
36001;SDS011;22070;50.922;5.430;2024-03-17T04:34:48;5.38;;;3.58;;
36001;SDS011;22070;50.922;5.430;2024-03-17T04:37:14;7.63;;;3.50;;
36001;SDS011;22070;50.922;5.430;2024-03-17T04:39:44;8.20;;;3.80;;
36001;SDS011;22070;50.922;5.430;2024-03-17T04:42:11;7.03;;;3.58;;
36001;SDS011;22070;50.922;5.430;2024-03-17T04:44:39;7.05;;;3.83;;
36001;SDS011;22070;50.922;5.430;2024-03-17T04:47:05;4.90;;;3.55;;
36001;SDS011;22070;50.922;5.430;2024-03-17T04:49:41;8.43;;;3.92;;
36001;SDS011;22070;50.922;5.430;2024-03-17T04:52:08;6.60;;;3.30;;
36001;SDS011;22070;50.922;5.430;2024-03-17T04:54:35;7.93;;;3.60;;
36001;SDS011;22070;50.922;5.430;2024-03-17T04:57:01;6.95;;;3.60;;
36001;SDS011;22070;50.922;5.430;2024-03-17T04:59:27;7.00;;;3.67;;
36001;SDS011;22070;50.922;5.430;2024-03-17T05:01:53;7.90;;;3.80;;
36001;SDS011;22070;50.922;5.430;2024-03-17T05:04:19;9.05;;;3.63;;
36001;SDS011;22070;50.922;5.430;2024-03-17T05:06:45;7.00;;;3.40;;
36001;SDS011;22070;50.922;5.430;2024-03-17T05:09:11;5.43;;;3.57;;
36001;SDS011;22070;50.922;5.430;2024-03-17T05:11:40;6.88;;;3.28;;
36001;SDS011;22070;50.922;5.430;2024-03-17T05:14:06;7.22;;;3.38;;
36001;SDS011;22070;50.922;5.430;2024-03-17T05:16:33;6.22;;;3.20;;
36001;SDS011;22070;50.922;5.430;2024-03-17T05:18:58;5.40;;;3.55;;
36001;SDS011;22070;50.922;5.430;2024-03-17T05:21:24;5.18;;;3.22;;
36001;SDS011;22070;50.922;5.430;2024-03-17T05:23:51;6.03;;;3.38;;
36001;SDS011;22070;50.922;5.430;2024-03-17T05:26:17;4.10;;;2.55;;
36001;SDS011;22070;50.922;5.430;2024-03-17T05:28:43;5.93;;;3.67;;
36001;SDS011;22070;50.922;5.430;2024-03-17T05:31:12;6.47;;;3.35;;
36001;SDS011;22070;50.922;5.430;2024-03-17T05:33:42;7.82;;;3.05;;
36001;SDS011;22070;50.922;5.430;2024-03-17T05:36:08;6.27;;;3.40;;
36001;SDS011;22070;50.922;5.430;2024-03-17T05:38:34;6.35;;;3.85;;
36001;SDS011;22070;50.922;5.430;2024-03-17T05:41:00;6.23;;;3.50;;
36001;SDS011;22070;50.922;5.430;2024-03-17T05:43:28;6.72;;;3.20;;
36001;SDS011;22070;50.922;5.430;2024-03-17T05:46:07;6.20;;;3.38;;
36001;SDS011;22070;50.922;5.430;2024-03-17T05:48:35;3.60;;;2.83;;
36001;SDS011;22070;50.922;5.430;2024-03-17T05:51:03;6.40;;;2.78;;
36001;SDS011;22070;50.922;5.430;2024-03-17T05:53:32;5.18;;;2.90;;
36001;SDS011;22070;50.922;5.430;2024-03-17T05:55:59;4.20;;;3.28;;
36001;SDS011;22070;50.922;5.430;2024-03-17T05:58:25;4.60;;;3.17;;
36001;SDS011;22070;50.922;5.430;2024-03-17T06:00:51;4.90;;;3.03;;
36001;SDS011;22070;50.922;5.430;2024-03-17T06:03:16;4.65;;;2.63;;
36001;SDS011;22070;50.922;5.430;2024-03-17T06:05:42;6.75;;;3.28;;
36001;SDS011;22070;50.922;5.430;2024-03-17T06:08:11;6.15;;;3.17;;
36001;SDS011;22070;50.922;5.430;2024-03-17T06:10:37;5.25;;;3.40;;
36001;SDS011;22070;50.922;5.430;2024-03-17T06:13:07;6.75;;;3.67;;
36001;SDS011;22070;50.922;5.430;2024-03-17T06:15:37;4.00;;;2.95;;
36001;SDS011;22070;50.922;5.430;2024-03-17T06:18:03;4.18;;;2.97;;
36001;SDS011;22070;50.922;5.430;2024-03-17T06:20:29;4.43;;;3.07;;
36001;SDS011;22070;50.922;5.430;2024-03-17T06:22:55;4.47;;;3.40;;
36001;SDS011;22070;50.922;5.430;2024-03-17T06:25:21;4.75;;;3.15;;
36001;SDS011;22070;50.922;5.430;2024-03-17T06:27:50;6.53;;;3.10;;
36001;SDS011;22070;50.922;5.430;2024-03-17T06:30:16;7.30;;;3.08;;
36001;SDS011;22070;50.922;5.430;2024-03-17T06:32:42;7.70;;;3.50;;
36001;SDS011;22070;50.922;5.430;2024-03-17T06:35:10;5.50;;;2.95;;
36001;SDS011;22070;50.922;5.430;2024-03-17T06:37:50;6.97;;;2.92;;
36001;SDS011;22070;50.922;5.430;2024-03-17T06:40:17;6.43;;;3.03;;
36001;SDS011;22070;50.922;5.430;2024-03-17T06:42:43;5.55;;;3.08;;
36001;SDS011;22070;50.922;5.430;2024-03-17T06:45:09;5.03;;;2.80;;
36001;SDS011;22070;50.922;5.430;2024-03-17T06:47:35;3.92;;;2.70;;
36001;SDS011;22070;50.922;5.430;2024-03-17T06:50:02;2.97;;;2.35;;
36001;SDS011;22070;50.922;5.430;2024-03-17T06:52:28;6.65;;;2.70;;
36001;SDS011;22070;50.922;5.430;2024-03-17T06:54:54;4.28;;;2.75;;
36001;SDS011;22070;50.922;5.430;2024-03-17T06:57:20;8.10;;;2.95;;
36001;SDS011;22070;50.922;5.430;2024-03-17T06:59:46;6.20;;;2.90;;
36001;SDS011;22070;50.922;5.430;2024-03-17T07:02:13;4.10;;;2.60;;
36001;SDS011;22070;50.922;5.430;2024-03-17T07:04:42;5.80;;;2.75;;
36001;SDS011;22070;50.922;5.430;2024-03-17T07:07:11;4.47;;;2.75;;
36001;SDS011;22070;50.922;5.430;2024-03-17T07:09:38;9.13;;;3.23;;
36001;SDS011;22070;50.922;5.430;2024-03-17T07:12:07;3.50;;;2.28;;
36001;SDS011;22070;50.922;5.430;2024-03-17T07:14:33;6.20;;;2.83;;
36001;SDS011;22070;50.922;5.430;2024-03-17T07:16:59;4.77;;;2.73;;
36001;SDS011;22070;50.922;5.430;2024-03-17T07:19:24;5.38;;;2.83;;
36001;SDS011;22070;50.922;5.430;2024-03-17T07:21:50;5.60;;;3.15;;
36001;SDS011;22070;50.922;5.430;2024-03-17T07:24:16;6.00;;;2.90;;
36001;SDS011;22070;50.922;5.430;2024-03-17T07:26:41;6.27;;;2.40;;
36001;SDS011;22070;50.922;5.430;2024-03-17T07:29:07;6.70;;;3.17;;
36001;SDS011;22070;50.922;5.430;2024-03-17T07:31:33;3.72;;;2.88;;
36001;SDS011;22070;50.922;5.430;2024-03-17T07:33:59;6.60;;;2.63;;
36001;SDS011;22070;50.922;5.430;2024-03-17T07:36:25;4.00;;;2.20;;
36001;SDS011;22070;50.922;5.430;2024-03-17T07:38:50;5.30;;;3.30;;
36001;SDS011;22070;50.922;5.430;2024-03-17T07:41:17;6.35;;;3.10;;
36001;SDS011;22070;50.922;5.430;2024-03-17T07:43:44;5.90;;;3.35;;
36001;SDS011;22070;50.922;5.430;2024-03-17T07:46:10;4.32;;;2.85;;
36001;SDS011;22070;50.922;5.430;2024-03-17T07:53:34;5.00;;;2.88;;
36001;SDS011;22070;50.922;5.430;2024-03-17T07:56:10;5.85;;;3.00;;
36001;SDS011;22070;50.922;5.430;2024-03-17T07:58:37;4.43;;;2.78;;
36001;SDS011;22070;50.922;5.430;2024-03-17T08:01:14;7.55;;;3.35;;
36001;SDS011;22070;50.922;5.430;2024-03-17T08:03:41;4.93;;;2.90;;
36001;SDS011;22070;50.922;5.430;2024-03-17T08:06:09;4.75;;;2.97;;
36001;SDS011;22070;50.922;5.430;2024-03-17T08:08:38;4.10;;;2.92;;
36001;SDS011;22070;50.922;5.430;2024-03-17T08:11:04;5.28;;;3.00;;
36001;SDS011;22070;50.922;5.430;2024-03-17T08:13:30;3.90;;;2.90;;
36001;SDS011;22070;50.922;5.430;2024-03-17T08:16:07;7.40;;;3.60;;
36001;SDS011;22070;50.922;5.430;2024-03-17T08:18:35;11.43;;;3.20;;
36001;SDS011;22070;50.922;5.430;2024-03-17T08:21:01;3.78;;;2.80;;
36001;SDS011;22070;50.922;5.430;2024-03-17T08:23:31;4.20;;;2.95;;
36001;SDS011;22070;50.922;5.430;2024-03-17T08:26:00;5.65;;;2.80;;
36001;SDS011;22070;50.922;5.430;2024-03-17T08:28:26;4.05;;;2.70;;
36001;SDS011;22070;50.922;5.430;2024-03-17T08:30:59;4.35;;;2.75;;
36001;SDS011;22070;50.922;5.430;2024-03-17T08:33:28;9.05;;;3.15;;
36001;SDS011;22070;50.922;5.430;2024-03-17T08:38:34;5.57;;;2.70;;
36001;SDS011;22070;50.922;5.430;2024-03-17T08:43:34;7.85;;;2.80;;
36001;SDS011;22070;50.922;5.430;2024-03-17T08:46:01;5.20;;;2.65;;
36001;SDS011;22070;50.922;5.430;2024-03-17T08:48:34;5.70;;;2.92;;
36001;SDS011;22070;50.922;5.430;2024-03-17T08:51:02;5.75;;;2.92;;
36001;SDS011;22070;50.922;5.430;2024-03-17T08:53:29;5.45;;;2.65;;
36001;SDS011;22070;50.922;5.430;2024-03-17T08:55:56;6.07;;;2.90;;
36001;SDS011;22070;50.922;5.430;2024-03-17T08:58:22;3.92;;;2.88;;
36001;SDS011;22070;50.922;5.430;2024-03-17T09:00:48;6.30;;;3.00;;
36001;SDS011;22070;50.922;5.430;2024-03-17T09:03:14;6.53;;;3.47;;
36001;SDS011;22070;50.922;5.430;2024-03-17T09:05:40;5.53;;;2.83;;
36001;SDS011;22070;50.922;5.430;2024-03-17T09:08:09;3.92;;;2.92;;
36001;SDS011;22070;50.922;5.430;2024-03-17T09:13:15;6.32;;;3.30;;
36001;SDS011;22070;50.922;5.430;2024-03-17T09:18:25;12.25;;;3.33;;
36001;SDS011;22070;50.922;5.430;2024-03-17T09:20:58;5.55;;;2.70;;
36001;SDS011;22070;50.922;5.430;2024-03-17T09:23:26;4.88;;;2.92;;
36001;SDS011;22070;50.922;5.430;2024-03-17T09:26:02;4.22;;;2.78;;
36001;SDS011;22070;50.922;5.430;2024-03-17T09:28:29;6.28;;;3.00;;
36001;SDS011;22070;50.922;5.430;2024-03-17T09:33:22;5.80;;;2.95;;
36001;SDS011;22070;50.922;5.430;2024-03-17T09:38:21;7.68;;;2.65;;
36001;SDS011;22070;50.922;5.430;2024-03-17T09:40:47;7.90;;;3.55;;
36001;SDS011;22070;50.922;5.430;2024-03-17T09:43:16;8.45;;;3.22;;
36001;SDS011;22070;50.922;5.430;2024-03-17T09:45:41;6.60;;;2.53;;
36001;SDS011;22070;50.922;5.430;2024-03-17T09:48:07;5.93;;;3.07;;
36001;SDS011;22070;50.922;5.430;2024-03-17T09:50:40;5.18;;;3.17;;
36001;SDS011;22070;50.922;5.430;2024-03-17T09:53:06;6.25;;;2.70;;
36001;SDS011;22070;50.922;5.430;2024-03-17T09:55:39;4.95;;;2.80;;
36001;SDS011;22070;50.922;5.430;2024-03-17T09:58:06;3.97;;;2.58;;
36001;SDS011;22070;50.922;5.430;2024-03-17T10:00:42;6.50;;;3.22;;
36001;SDS011;22070;50.922;5.430;2024-03-17T10:03:08;4.88;;;3.00;;
36001;SDS011;22070;50.922;5.430;2024-03-17T10:05:33;3.80;;;2.30;;
36001;SDS011;22070;50.922;5.430;2024-03-17T10:07:59;4.03;;;1.73;;
36001;SDS011;22070;50.922;5.430;2024-03-17T10:10:24;7.20;;;2.07;;
36001;SDS011;22070;50.922;5.430;2024-03-17T10:12:51;6.77;;;2.53;;
36001;SDS011;22070;50.922;5.430;2024-03-17T10:15:17;4.15;;;2.45;;
36001;SDS011;22070;50.922;5.430;2024-03-17T10:17:44;3.58;;;1.90;;
36001;SDS011;22070;50.922;5.430;2024-03-17T10:20:17;3.47;;;2.10;;
36001;SDS011;22070;50.922;5.430;2024-03-17T10:22:58;5.55;;;2.10;;
36001;SDS011;22070;50.922;5.430;2024-03-17T10:25:25;3.55;;;2.00;;
36001;SDS011;22070;50.922;5.430;2024-03-17T10:27:52;3.72;;;2.20;;
36001;SDS011;22070;50.922;5.430;2024-03-17T10:30:19;2.22;;;1.63;;
36001;SDS011;22070;50.922;5.430;2024-03-17T10:32:46;3.10;;;1.67;;
36001;SDS011;22070;50.922;5.430;2024-03-17T10:35:25;2.22;;;1.90;;
36001;SDS011;22070;50.922;5.430;2024-03-17T10:38:00;2.72;;;1.90;;
36001;SDS011;22070;50.922;5.430;2024-03-17T10:40:27;3.88;;;1.90;;
36001;SDS011;22070;50.922;5.430;2024-03-17T10:42:54;2.88;;;1.77;;
36001;SDS011;22070;50.922;5.430;2024-03-17T10:45:21;3.00;;;2.10;;
36001;SDS011;22070;50.922;5.430;2024-03-17T10:47:50;2.00;;;1.65;;
36001;SDS011;22070;50.922;5.430;2024-03-17T10:50:25;3.00;;;1.80;;
36001;SDS011;22070;50.922;5.430;2024-03-17T10:52:55;3.60;;;2.00;;
36001;SDS011;22070;50.922;5.430;2024-03-17T10:55:36;2.80;;;1.70;;
36001;SDS011;22070;50.922;5.430;2024-03-17T10:58:05;8.80;;;1.98;;
36001;SDS011;22070;50.922;5.430;2024-03-17T11:00:45;5.88;;;2.10;;
36001;SDS011;22070;50.922;5.430;2024-03-17T11:03:11;4.95;;;2.30;;
36001;SDS011;22070;50.922;5.430;2024-03-17T11:05:39;2.65;;;1.90;;
36001;SDS011;22070;50.922;5.430;2024-03-17T11:08:05;6.40;;;2.00;;
36001;SDS011;22070;50.922;5.430;2024-03-17T11:10:35;2.55;;;1.83;;
36001;SDS011;22070;50.922;5.430;2024-03-17T11:13:02;2.42;;;1.80;;
36001;SDS011;22070;50.922;5.430;2024-03-17T11:20:35;2.42;;;1.77;;
36001;SDS011;22070;50.922;5.430;2024-03-17T11:23:02;3.67;;;1.98;;
36001;SDS011;22070;50.922;5.430;2024-03-17T11:38:57;2.00;;;1.63;;
36001;SDS011;22070;50.922;5.430;2024-03-17T11:47:03;3.95;;;2.25;;
36001;SDS011;22070;50.922;5.430;2024-03-17T11:52:03;3.13;;;2.00;;
36001;SDS011;22070;50.922;5.430;2024-03-17T11:54:33;2.80;;;1.92;;
36001;SDS011;22070;50.922;5.430;2024-03-17T11:57:01;5.03;;;2.10;;
36001;SDS011;22070;50.922;5.430;2024-03-17T11:59:35;3.78;;;1.90;;
36001;SDS011;22070;50.922;5.430;2024-03-17T12:02:02;2.30;;;1.77;;
36001;SDS011;22070;50.922;5.430;2024-03-17T12:04:41;2.40;;;1.60;;
36001;SDS011;22070;50.922;5.430;2024-03-17T12:07:10;5.25;;;1.92;;
36001;SDS011;22070;50.922;5.430;2024-03-17T12:09:41;4.35;;;2.10;;
36001;SDS011;22070;50.922;5.430;2024-03-17T12:14:37;2.40;;;1.30;;
36001;SDS011;22070;50.922;5.430;2024-03-17T12:17:05;3.95;;;1.90;;
36001;SDS011;22070;50.922;5.430;2024-03-17T12:19:36;3.17;;;1.60;;
36001;SDS011;22070;50.922;5.430;2024-03-17T12:22:07;3.08;;;1.35;;
36001;SDS011;22070;50.922;5.430;2024-03-17T12:24:35;4.25;;;1.60;;
36001;SDS011;22070;50.922;5.430;2024-03-17T12:27:03;4.53;;;1.90;;
36001;SDS011;22070;50.922;5.430;2024-03-17T12:29:31;3.05;;;1.50;;
36001;SDS011;22070;50.922;5.430;2024-03-17T12:31:58;2.95;;;1.55;;
36001;SDS011;22070;50.922;5.430;2024-03-17T12:34:27;3.03;;;1.70;;
36001;SDS011;22070;50.922;5.430;2024-03-17T12:36:54;3.90;;;1.73;;
36001;SDS011;22070;50.922;5.430;2024-03-17T12:39:24;2.50;;;1.73;;
36001;SDS011;22070;50.922;5.430;2024-03-17T12:45:00;2.08;;;1.85;;
36001;SDS011;22070;50.922;5.430;2024-03-17T12:47:27;3.65;;;1.85;;
36001;SDS011;22070;50.922;5.430;2024-03-17T12:49:55;4.78;;;1.90;;
36001;SDS011;22070;50.922;5.430;2024-03-17T12:57:51;2.78;;;1.70;;
36001;SDS011;22070;50.922;5.430;2024-03-17T13:01:05;2.10;;;1.42;;
36001;SDS011;22070;50.922;5.430;2024-03-17T13:05:59;2.95;;;2.08;;
36001;SDS011;22070;50.922;5.430;2024-03-17T13:08:29;3.95;;;1.58;;
36001;SDS011;22070;50.922;5.430;2024-03-17T13:10:56;2.67;;;1.50;;
36001;SDS011;22070;50.922;5.430;2024-03-17T13:13:23;4.18;;;1.60;;
36001;SDS011;22070;50.922;5.430;2024-03-17T13:15:48;2.07;;;1.37;;
36001;SDS011;22070;50.922;5.430;2024-03-17T13:18:17;1.83;;;1.33;;
36001;SDS011;22070;50.922;5.430;2024-03-17T13:20:47;5.25;;;1.83;;
36001;SDS011;22070;50.922;5.430;2024-03-17T13:23:20;2.88;;;1.55;;
36001;SDS011;22070;50.922;5.430;2024-03-17T13:25:49;3.17;;;1.80;;
36001;SDS011;22070;50.922;5.430;2024-03-17T13:28:15;2.03;;;1.40;;
36001;SDS011;22070;50.922;5.430;2024-03-17T13:30:41;4.80;;;1.83;;
36001;SDS011;22070;50.922;5.430;2024-03-17T13:33:08;2.05;;;1.40;;
36001;SDS011;22070;50.922;5.430;2024-03-17T13:35:34;2.83;;;1.20;;
36001;SDS011;22070;50.922;5.430;2024-03-17T13:38:03;2.45;;;1.27;;
36001;SDS011;22070;50.922;5.430;2024-03-17T13:40:31;1.58;;;1.35;;
36001;SDS011;22070;50.922;5.430;2024-03-17T13:42:58;4.35;;;1.35;;
36001;SDS011;22070;50.922;5.430;2024-03-17T13:45:24;5.83;;;1.50;;
36001;SDS011;22070;50.922;5.430;2024-03-17T13:48:01;3.03;;;1.50;;
36001;SDS011;22070;50.922;5.430;2024-03-17T13:50:30;2.78;;;1.25;;
36001;SDS011;22070;50.922;5.430;2024-03-17T13:52:56;2.13;;;1.20;;
36001;SDS011;22070;50.922;5.430;2024-03-17T13:55:24;3.10;;;0.80;;
36001;SDS011;22070;50.922;5.430;2024-03-17T13:57:55;3.92;;;1.15;;
36001;SDS011;22070;50.922;5.430;2024-03-17T14:00:22;1.33;;;0.90;;
36001;SDS011;22070;50.922;5.430;2024-03-17T14:02:49;3.58;;;1.38;;
36001;SDS011;22070;50.922;5.430;2024-03-17T14:05:16;1.23;;;1.08;;
36001;SDS011;22070;50.922;5.430;2024-03-17T14:07:43;2.15;;;1.30;;
36001;SDS011;22070;50.922;5.430;2024-03-17T14:10:10;2.10;;;0.93;;
36001;SDS011;22070;50.922;5.430;2024-03-17T14:12:37;3.55;;;1.20;;
36001;SDS011;22070;50.922;5.430;2024-03-17T14:15:07;1.73;;;1.30;;
36001;SDS011;22070;50.922;5.430;2024-03-17T14:17:40;2.75;;;1.20;;
36001;SDS011;22070;50.922;5.430;2024-03-17T14:20:06;3.58;;;1.40;;
36001;SDS011;22070;50.922;5.430;2024-03-17T14:22:36;2.17;;;1.30;;
36001;SDS011;22070;50.922;5.430;2024-03-17T14:25:02;3.22;;;1.50;;
36001;SDS011;22070;50.922;5.430;2024-03-17T14:27:32;1.73;;;1.00;;
36001;SDS011;22070;50.922;5.430;2024-03-17T14:29:59;2.90;;;1.33;;
36001;SDS011;22070;50.922;5.430;2024-03-17T14:32:25;1.93;;;1.17;;
36001;SDS011;22070;50.922;5.430;2024-03-17T14:34:50;3.20;;;1.33;;
36001;SDS011;22070;50.922;5.430;2024-03-17T14:37:16;2.70;;;1.43;;
36001;SDS011;22070;50.922;5.430;2024-03-17T14:39:42;4.05;;;0.80;;
36001;SDS011;22070;50.922;5.430;2024-03-17T14:42:09;1.92;;;1.20;;
36001;SDS011;22070;50.922;5.430;2024-03-17T14:44:35;5.10;;;1.83;;
36001;SDS011;22070;50.922;5.430;2024-03-17T14:47:01;1.55;;;0.80;;
36001;SDS011;22070;50.922;5.430;2024-03-17T14:49:29;2.30;;;1.00;;
36001;SDS011;22070;50.922;5.430;2024-03-17T14:51:56;4.28;;;1.10;;
36001;SDS011;22070;50.922;5.430;2024-03-17T14:54:22;3.67;;;1.10;;
36001;SDS011;22070;50.922;5.430;2024-03-17T14:56:48;0.67;;;0.67;;
36001;SDS011;22070;50.922;5.430;2024-03-17T14:59:13;3.80;;;1.10;;
36001;SDS011;22070;50.922;5.430;2024-03-17T15:01:43;2.03;;;0.80;;
36001;SDS011;22070;50.922;5.430;2024-03-17T15:06:35;3.00;;;0.90;;
36001;SDS011;22070;50.922;5.430;2024-03-17T15:09:01;1.00;;;0.93;;
36001;SDS011;22070;50.922;5.430;2024-03-17T15:11:28;3.25;;;1.05;;
36001;SDS011;22070;50.922;5.430;2024-03-17T15:13:53;3.77;;;1.00;;
36001;SDS011;22070;50.922;5.430;2024-03-17T15:16:19;2.00;;;0.90;;
36001;SDS011;22070;50.922;5.430;2024-03-17T15:21:11;0.97;;;0.73;;
36001;SDS011;22070;50.922;5.430;2024-03-17T15:23:37;2.05;;;0.77;;
36001;SDS011;22070;50.922;5.430;2024-03-17T15:26:05;2.55;;;0.82;;
36001;SDS011;22070;50.922;5.430;2024-03-17T15:28:34;3.40;;;0.80;;
36001;SDS011;22070;50.922;5.430;2024-03-17T15:31:02;2.55;;;1.00;;
36001;SDS011;22070;50.922;5.430;2024-03-17T15:33:28;1.42;;;0.80;;
36001;SDS011;22070;50.922;5.430;2024-03-17T15:35:54;2.07;;;0.90;;
36001;SDS011;22070;50.922;5.430;2024-03-17T15:38:20;4.80;;;1.00;;
36001;SDS011;22070;50.922;5.430;2024-03-17T15:40:47;3.42;;;0.90;;
36001;SDS011;22070;50.922;5.430;2024-03-17T15:43:13;2.37;;;1.00;;
36001;SDS011;22070;50.922;5.430;2024-03-17T15:45:38;1.97;;;0.93;;
36001;SDS011;22070;50.922;5.430;2024-03-17T15:48:04;3.57;;;0.90;;
36001;SDS011;22070;50.922;5.430;2024-03-17T15:50:30;1.27;;;0.57;;
36001;SDS011;22070;50.922;5.430;2024-03-17T15:52:56;1.20;;;1.00;;
36001;SDS011;22070;50.922;5.430;2024-03-17T15:55:22;1.10;;;0.53;;
36001;SDS011;22070;50.922;5.430;2024-03-17T15:57:48;2.33;;;0.70;;
36001;SDS011;22070;50.922;5.430;2024-03-17T16:00:14;1.25;;;1.00;;
36001;SDS011;22070;50.922;5.430;2024-03-17T16:02:41;1.40;;;0.90;;